Time;durP1;ratioP1;P1;durP2;ratioP2;P2;SDS_P1;SDS_P2;PMS_P1;PMS_P2;Temp;Humidity;BMP_temperature;BMP_pressure;BME280_temperature;BME280_humidity;BME280_pressure;Samples;Min_cycle;Max_cycle;Signal;HPM_P1;HPM_P2
2021/03/10 00:00:30;;;;;;;72.82;35.30;;;4.60;99.90;;;;;;5013110;28;20506;-71
2021/03/10 00:02:57;;;;;;;73.25;35.85;;;4.60;99.90;;;;;;5013645;28;20061;-71
2021/03/10 00:05:23;;;;;;;74.85;35.63;;;4.60;99.90;;;;;;5013804;28;20061;-71
2021/03/10 00:07:49;;;;;;;74.78;36.67;;;4.60;99.90;;;;;;5013472;28;20030;-71
2021/03/10 00:10:16;;;;;;;75.68;35.13;;;4.60;99.90;;;;;;5013581;28;20459;-71
2021/03/10 00:12:43;;;;;;;86.82;38.22;;;4.60;99.90;;;;;;5013180;28;20045;-71
2021/03/10 00:15:11;;;;;;;82.47;37.67;;;4.60;99.90;;;;;;5015063;28;20038;-71
2021/03/10 00:17:42;;;;;;;73.85;34.20;;;4.60;99.90;;;;;;5020338;28;20042;-71
2021/03/10 00:20:11;;;;;;;77.15;36.58;;;4.60;99.90;;;;;;5013544;28;20041;-71
2021/03/10 00:22:38;;;;;;;68.60;35.35;;;4.60;99.90;;;;;;5013207;28;20045;-72
2021/03/10 00:25:05;;;;;;;81.55;36.33;;;4.60;99.90;;;;;;5013148;28;20038;-71
2021/03/10 00:27:32;;;;;;;77.07;37.03;;;4.50;99.90;;;;;;5017188;28;20037;-72
2021/03/10 00:30:00;;;;;;;82.63;38.42;;;4.50;99.90;;;;;;5031571;28;20378;-71
2021/03/10 00:32:28;;;;;;;90.28;38.88;;;4.50;99.90;;;;;;5022349;28;20471;-71
2021/03/10 00:34:55;;;;;;;84.10;39.33;;;4.50;99.90;;;;;;5022900;28;20034;-72
2021/03/10 00:37:22;;;;;;;74.40;36.42;;;4.50;99.90;;;;;;5013449;28;20040;-71
2021/03/10 00:39:49;;;;;;;75.40;36.75;;;4.40;99.90;;;;;;5012869;28;20036;-72
2021/03/10 00:42:16;;;;;;;77.78;35.92;;;4.40;99.90;;;;;;5022937;28;20049;-71
2021/03/10 00:44:43;;;;;;;83.07;36.22;;;4.40;99.90;;;;;;5019773;28;20057;-71
2021/03/10 00:47:10;;;;;;;78.97;38.58;;;4.30;99.90;;;;;;5013272;28;20054;-71
2021/03/10 00:49:38;;;;;;;84.97;38.22;;;4.40;99.90;;;;;;5012626;28;20034;-71
2021/03/10 00:52:05;;;;;;;78.90;37.40;;;4.30;99.90;;;;;;5020078;28;20044;-71
2021/03/10 00:54:32;;;;;;;84.85;39.15;;;4.30;99.90;;;;;;5020163;28;20045;-71
2021/03/10 00:56:58;;;;;;;81.20;38.33;;;4.30;99.90;;;;;;5012374;28;20041;-71
2021/03/10 00:59:25;;;;;;;82.72;37.88;;;4.20;99.90;;;;;;5029251;28;20040;-71
2021/03/10 01:01:51;;;;;;;84.03;39.03;;;4.10;99.90;;;;;;5012638;28;20365;-72
2021/03/10 01:04:18;;;;;;;88.82;38.58;;;4.10;99.90;;;;;;5012934;28;20070;-72
2021/03/10 01:06:44;;;;;;;88.50;39.67;;;4.20;99.90;;;;;;5028248;28;20471;-71
2021/03/10 01:09:10;;;;;;;97.75;41.65;;;4.10;99.90;;;;;;5018824;28;20033;-72
2021/03/10 01:11:37;;;;;;;93.07;42.22;;;4.10;99.90;;;;;;5026242;28;20037;-72
2021/03/10 01:14:03;;;;;;;86.82;39.53;;;4.10;99.90;;;;;;5013773;28;20030;-72
2021/03/10 01:16:30;;;;;;;76.05;36.95;;;4.00;99.90;;;;;;5030582;28;20044;-72
2021/03/10 01:18:57;;;;;;;83.57;35.15;;;4.00;99.90;;;;;;5028058;28;20045;-70
2021/03/10 01:21:24;;;;;;;75.80;36.92;;;4.00;99.90;;;;;;5012289;28;20059;-71
2021/03/10 01:23:50;;;;;;;85.28;39.15;;;3.90;99.90;;;;;;5012321;28;20036;-71
2021/03/10 01:26:17;;;;;;;88.93;42.33;;;4.00;99.90;;;;;;5018487;28;20057;-72
2021/03/10 01:28:43;;;;;;;102.15;40.15;;;4.00;99.90;;;;;;5014919;28;20037;-71
2021/03/10 01:31:09;;;;;;;93.82;39.38;;;4.00;99.90;;;;;;5013251;28;20037;-72
2021/03/10 01:33:36;;;;;;;98.47;42.22;;;4.00;99.90;;;;;;5012053;28;20065;-72
2021/03/10 01:36:03;;;;;;;99.93;42.97;;;4.00;99.90;;;;;;5027875;28;20387;-71
2021/03/10 01:38:29;;;;;;;104.35;43.25;;;4.00;99.90;;;;;;5016045;28;20037;-72
2021/03/10 01:40:55;;;;;;;97.65;42.58;;;4.00;99.90;;;;;;5031394;28;20033;-72
2021/03/10 01:43:21;;;;;;;94.70;43.22;;;4.00;99.90;;;;;;5015896;28;20041;-72
2021/03/10 01:45:47;;;;;;;102.97;43.03;;;4.00;99.90;;;;;;5015321;28;20042;-72
2021/03/10 01:48:20;;;;;;;97.30;43.97;;;4.00;99.90;;;;;;5017137;28;20037;-72
2021/03/10 01:50:47;;;;;;;97.32;44.63;;;4.00;99.90;;;;;;5022930;28;20117;-72
2021/03/10 01:53:13;;;;;;;98.50;42.17;;;4.00;99.90;;;;;;5016071;28;20037;-73
2021/03/10 01:55:39;;;;;;;91.63;40.83;;;4.00;99.90;;;;;;5022054;28;20029;-73
2021/03/10 01:58:06;;;;;;;93.70;40.95;;;3.90;99.90;;;;;;5017063;28;20410;-72
2021/03/10 02:00:33;;;;;;;84.75;37.50;;;3.90;99.90;;;;;;5015985;28;20026;-72
2021/03/10 02:02:59;;;;;;;83.25;36.75;;;3.90;99.90;;;;;;5021306;28;20383;-72
2021/03/10 02:05:26;;;;;;;89.45;38.20;;;3.90;99.90;;;;;;5022287;28;20037;-72
2021/03/10 02:08:08;;;;;;;95.53;39.25;;;3.90;99.90;;;;;;5022014;28;20037;-72
2021/03/10 02:10:37;;;;;;;;;;;3.90;99.90;;;;;;5019493;28;20048;-72
2021/03/10 02:13:18;;;;;;;83.70;35.85;;;3.90;99.90;;;;;;5015732;28;19910;-72
2021/03/10 02:15:53;;;;;;;;;;;3.90;99.90;;;;;;5015661;28;20052;-72
2021/03/10 02:18:26;;;;;;;82.47;36.47;;;3.90;99.90;;;;;;5015999;28;19916;-72
2021/03/10 02:20:56;;;;;;;91.32;39.08;;;3.80;99.90;;;;;;5015345;28;20460;-72
2021/03/10 02:23:25;;;;;;;71.25;31.35;;;3.90;99.90;;;;;;5015552;28;20042;-72
2021/03/10 02:26:28;;;;;;;92.95;41.83;;;3.90;99.90;;;;;;5015230;28;20490;-72
2021/03/10 02:29:04;;;;;;;87.68;38.30;;;3.90;99.90;;;;;;5015410;28;20037;-72
2021/03/10 02:31:36;;;;;;;94.65;41.05;;;3.80;99.90;;;;;;5015031;28;20045;-72
2021/03/10 02:34:05;;;;;;;95.95;42.17;;;3.80;99.90;;;;;;5015303;28;20037;-72
2021/03/10 02:36:32;;;;;;;97.88;41.95;;;3.80;99.90;;;;;;5034578;28;20053;-73
2021/03/10 02:39:01;;;;;;;91.75;41.92;;;3.80;99.90;;;;;;5018073;28;20021;-72
2021/03/10 02:41:31;;;;;;;95.50;40.35;;;3.80;99.90;;;;;;5015672;28;20536;-72
2021/03/10 02:43:58;;;;;;;94.20;42.85;;;3.80;99.90;;;;;;5015476;28;20391;-71
2021/03/10 02:46:27;;;;;;;95.63;42.38;;;3.80;99.90;;;;;;5015118;28;20050;-71
2021/03/10 02:48:53;;;;;;;92.95;39.33;;;3.90;99.90;;;;;;5014886;28;20428;-71
2021/03/10 02:51:21;;;;;;;99.25;41.90;;;3.80;99.90;;;;;;5016826;28;20061;-71
2021/03/10 02:53:49;;;;;;;96.68;41.05;;;3.90;99.90;;;;;;5032472;28;20025;-72
2021/03/10 02:56:16;;;;;;;98.45;42.40;;;3.90;99.90;;;;;;5021736;28;20375;-72
2021/03/10 02:58:42;;;;;;;109.40;43.92;;;3.80;99.90;;;;;;5028170;28;20033;-72
2021/03/10 03:01:10;;;;;;;97.05;45.10;;;3.80;99.90;;;;;;5020859;28;20040;-72
2021/03/10 03:03:36;;;;;;;102.15;41.42;;;3.80;99.90;;;;;;5032884;28;20378;-72
2021/03/10 03:06:03;;;;;;;91.55;41.30;;;3.80;99.90;;;;;;5030833;28;20471;-71
2021/03/10 03:08:30;;;;;;;86.68;38.80;;;3.80;99.90;;;;;;5015719;28;20494;-71
2021/03/10 03:10:58;;;;;;;95.20;40.92;;;3.80;99.90;;;;;;5030390;28;20407;-71
2021/03/10 03:13:27;;;;;;;94.68;43.40;;;3.70;99.90;;;;;;5024602;28;20387;-71
2021/03/10 03:15:56;;;;;;;110.35;47.00;;;3.70;99.90;;;;;;5023931;28;20040;-71
2021/03/10 03:18:23;;;;;;;118.43;46.95;;;3.70;99.90;;;;;;5025735;28;20036;-71
2021/03/10 03:20:51;;;;;;;96.88;43.88;;;3.80;99.90;;;;;;5020629;28;20038;-71
2021/03/10 03:23:19;;;;;;;103.05;42.35;;;3.80;99.90;;;;;;5019463;28;20045;-72
2021/03/10 03:25:46;;;;;;;98.82;42.40;;;3.80;99.90;;;;;;5013089;28;20036;-72
2021/03/10 03:28:19;;;;;;;96.80;43.72;;;3.70;99.90;;;;;;5014429;28;20038;-71
2021/03/10 03:30:47;;;;;;;85.32;40.65;;;3.70;99.90;;;;;;5013689;28;20042;-71
2021/03/10 03:33:21;;;;;;;92.30;40.22;;;3.60;99.90;;;;;;5014352;28;20380;-71
2021/03/10 03:35:52;;;;;;;99.47;40.83;;;3.60;99.90;;;;;;5013989;28;20407;-71
2021/03/10 03:38:23;;;;;;;84.77;38.80;;;3.60;99.90;;;;;;5022333;28;20038;-71
2021/03/10 03:40:51;;;;;;;94.03;42.15;;;3.70;99.90;;;;;;5032403;28;20037;-71
2021/03/10 03:43:18;;;;;;;94.05;41.58;;;3.60;99.90;;;;;;5031525;28;20117;-72
2021/03/10 03:45:45;;;;;;;90.53;38.63;;;3.60;99.90;;;;;;5013449;28;20045;-72
2021/03/10 03:48:11;;;;;;;84.40;37.33;;;3.60;99.90;;;;;;5015908;28;20057;-72
2021/03/10 03:50:41;;;;;;;89.85;39.45;;;3.60;99.90;;;;;;5021724;28;20052;-72
2021/03/10 03:53:07;;;;;;;95.22;39.28;;;3.60;99.90;;;;;;5023409;28;20051;-71
2021/03/10 03:55:35;;;;;;;89.68;39.50;;;3.60;99.90;;;;;;5026510;28;20038;-71
2021/03/10 03:58:02;;;;;;;98.47;42.35;;;3.60;99.90;;;;;;5017337;28;20048;-72
2021/03/10 04:00:29;;;;;;;104.80;40.13;;;3.70;99.90;;;;;;5030536;28;20048;-72
2021/03/10 04:02:55;;;;;;;101.38;42.45;;;3.70;99.90;;;;;;5013597;28;20033;-72
2021/03/10 04:05:22;;;;;;;94.43;42.72;;;3.70;99.90;;;;;;5023618;28;20034;-71
2021/03/10 04:07:55;;;;;;;98.88;41.63;;;3.70;99.90;;;;;;5020337;28;20507;-72
2021/03/10 04:10:34;;;;;;;97.90;41.30;;;3.70;99.90;;;;;;5014634;28;20029;-72
2021/03/10 04:13:00;;;;;;;106.25;43.30;;;3.60;99.90;;;;;;5013402;28;20045;-72
2021/03/10 04:15:28;;;;;;;112.30;46.17;;;3.70;99.90;;;;;;5013642;28;20040;-72
2021/03/10 04:17:55;;;;;;;96.72;43.08;;;3.80;99.90;;;;;;5013401;28;20048;-72
2021/03/10 04:20:22;;;;;;;95.65;43.40;;;3.70;99.90;;;;;;5013996;28;20038;-72
2021/03/10 04:22:49;;;;;;;106.82;44.80;;;3.70;99.90;;;;;;5014891;28;20042;-72
2021/03/10 04:25:16;;;;;;;95.82;43.05;;;3.80;99.90;;;;;;5027779;28;20034;-72
2021/03/10 04:27:43;;;;;;;96.93;42.83;;;3.80;99.90;;;;;;5012851;28;20064;-72
2021/03/10 04:30:11;;;;;;;100.85;43.83;;;3.80;99.90;;;;;;5013334;28;20025;-71
2021/03/10 04:32:37;;;;;;;101.22;41.70;;;3.80;99.90;;;;;;5012556;28;20034;-71
2021/03/10 04:35:05;;;;;;;96.28;42.35;;;3.80;99.90;;;;;;5025555;28;20041;-71
2021/03/10 04:37:31;;;;;;;102.50;48.63;;;3.80;99.90;;;;;;5031008;28;20387;-71
2021/03/10 04:39:58;;;;;;;104.43;42.85;;;3.90;99.90;;;;;;5030784;28;20034;-72
2021/03/10 04:42:24;;;;;;;85.50;42.22;;;3.80;99.90;;;;;;5013024;28;20037;-71
2021/03/10 04:44:50;;;;;;;99.78;45.50;;;3.80;99.90;;;;;;5024783;28;20417;-71
2021/03/10 04:47:16;;;;;;;102.00;46.65;;;3.80;99.90;;;;;;5013072;28;20069;-71
2021/03/10 04:49:43;;;;;;;102.05;45.40;;;3.80;99.90;;;;;;5013113;28;20030;-71
2021/03/10 04:52:09;;;;;;;102.93;44.78;;;3.80;99.90;;;;;;5012644;28;20045;-72
2021/03/10 04:54:36;;;;;;;107.35;45.15;;;3.70;99.90;;;;;;5012505;28;20030;-72
2021/03/10 04:57:03;;;;;;;107.15;43.80;;;3.70;99.90;;;;;;5012990;28;20033;-72
2021/03/10 04:59:29;;;;;;;105.07;46.13;;;3.80;99.90;;;;;;5013949;28;20033;-72
2021/03/10 05:01:55;;;;;;;103.80;45.78;;;3.70;99.90;;;;;;5019668;28;20226;-72
2021/03/10 05:04:21;;;;;;;101.57;45.53;;;3.70;99.90;;;;;;5013032;28;20038;-72
2021/03/10 05:06:47;;;;;;;101.07;44.45;;;3.70;99.90;;;;;;5011611;28;20065;-72
2021/03/10 05:09:13;;;;;;;108.20;46.83;;;3.60;99.90;;;;;;5015276;28;20035;-72
2021/03/10 05:11:40;;;;;;;96.22;43.72;;;3.60;99.90;;;;;;5028410;28;20052;-71
2021/03/10 05:14:06;;;;;;;102.68;46.72;;;3.60;99.90;;;;;;5020196;28;20046;-72
2021/03/10 05:16:32;;;;;;;101.32;44.92;;;3.50;99.90;;;;;;5024332;28;20037;-71
2021/03/10 05:18:58;;;;;;;92.28;42.05;;;3.50;99.90;;;;;;5012567;28;20030;-71
2021/03/10 05:21:24;;;;;;;100.05;42.45;;;3.40;99.90;;;;;;5012332;28;20030;-72
2021/03/10 05:23:51;;;;;;;104.88;43.97;;;3.30;99.90;;;;;;5012070;28;20041;-71
2021/03/10 05:26:17;;;;;;;106.93;43.13;;;3.30;99.90;;;;;;5012859;28;20022;-71
2021/03/10 05:28:43;;;;;;;116.32;44.55;;;3.30;99.90;;;;;;5017051;28;20026;-71
2021/03/10 05:31:09;;;;;;;117.18;47.83;;;3.30;99.90;;;;;;5029496;28;20033;-72
2021/03/10 05:33:36;;;;;;;112.35;45.42;;;3.20;99.90;;;;;;5014811;28;20030;-71
2021/03/10 05:36:03;;;;;;;104.40;42.92;;;3.10;99.90;;;;;;5020326;28;20033;-72
2021/03/10 05:38:31;;;;;;;105.55;42.30;;;3.20;99.90;;;;;;5030901;28;20040;-72
2021/03/10 05:40:59;;;;;;;92.00;43.20;;;3.20;99.90;;;;;;5015104;28;20030;-71
2021/03/10 05:43:26;;;;;;;114.45;42.13;;;3.10;99.90;;;;;;5012150;28;20066;-72
2021/03/10 05:45:52;;;;;;;109.65;42.60;;;3.20;99.90;;;;;;5024684;28;20487;-71
2021/03/10 05:48:18;;;;;;;112.97;44.63;;;3.20;99.90;;;;;;5030776;28;20057;-70
2021/03/10 05:50:45;;;;;;;104.82;45.05;;;3.20;99.90;;;;;;5021136;28;20033;-71
2021/03/10 05:53:13;;;;;;;113.55;47.60;;;3.30;99.90;;;;;;5019504;28;20030;-70
2021/03/10 05:55:42;;;;;;;112.45;46.83;;;3.30;99.90;;;;;;5021762;28;20459;-70
2021/03/10 05:58:12;;;;;;;104.65;46.00;;;3.40;99.90;;;;;;5029821;28;20033;-71
2021/03/10 06:00:43;;;;;;;215.40;100.80;;;3.40;99.90;;;;;;5026213;28;20046;-72
2021/03/10 06:03:11;;;;;;;130.68;56.83;;;3.40;99.90;;;;;;5012275;28;20049;-69
2021/03/10 06:05:38;;;;;;;145.00;62.42;;;3.40;99.90;;;;;;5020391;28;20025;-68
2021/03/10 06:08:07;;;;;;;125.10;52.88;;;3.50;99.90;;;;;;5020383;28;20037;-69
2021/03/10 06:10:47;;;;;;;124.22;53.97;;;3.50;99.90;;;;;;5022266;28;20514;-69
2021/03/10 06:13:32;;;;;;;135.40;54.63;;;3.60;99.90;;;;;;5012263;28;20049;-69
2021/03/10 06:16:00;;;;;;;118.45;47.80;;;3.60;99.90;;;;;;5018597;28;20029;-68
2021/03/10 06:18:35;;;;;;;111.15;48.55;;;3.60;99.90;;;;;;5023524;28;20494;-68
2021/03/10 06:21:15;;;;;;;119.03;48.00;;;3.70;99.90;;;;;;5021250;28;20026;-71
2021/03/10 06:24:00;;;;;;;137.50;61.00;;;3.70;99.90;;;;;;5031515;28;20115;-71
2021/03/10 06:26:32;;;;;;;106.20;49.40;;;3.80;99.90;;;;;;5016402;28;20029;-71
2021/03/10 06:29:00;;;;;;;103.10;44.58;;;3.90;99.90;;;;;;5020582;28;20030;-70
2021/03/10 06:31:30;;;;;;;110.43;44.08;;;3.90;99.90;;;;;;5020899;28;20034;-71
2021/03/10 06:34:10;;;;;;;98.10;43.22;;;3.90;99.90;;;;;;5023576;28;20041;-71
2021/03/10 06:36:48;;;;;;;99.60;43.28;;;3.90;99.90;;;;;;5029874;28;20341;-71
2021/03/10 06:39:24;;;;;;;102.03;47.47;;;3.90;99.90;;;;;;5026660;28;20037;-70
2021/03/10 06:41:51;;;;;;;89.35;42.50;;;4.00;99.90;;;;;;5032905;28;20022;-72
2021/03/10 06:44:22;;;;;;;94.57;45.97;;;4.00;99.90;;;;;;5017497;28;20053;-78
2021/03/10 06:47:03;;;;;;;97.05;46.53;;;4.00;99.90;;;;;;5014164;28;20053;-77
2021/03/10 06:49:34;;;;;;;;;;;4.00;99.90;;;;;;5015633;28;20030;-69
2021/03/10 06:52:02;;;;;;;81.63;39.72;;;4.10;99.90;;;;;;5014679;28;19909;-69
2021/03/10 06:54:30;;;;;;;78.32;39.10;;;4.10;99.90;;;;;;5014505;28;20085;-69
2021/03/10 06:57:04;;;;;;;90.40;45.08;;;4.20;99.90;;;;;;5022631;28;20393;-69
2021/03/10 06:59:50;;;;;;;72.35;35.92;;;4.30;99.90;;;;;;5033032;28;20034;-68
2021/03/10 07:02:18;;;;;;;80.25;44.15;;;4.30;99.90;;;;;;5027686;28;20038;-69
2021/03/10 07:04:47;;;;;;;78.07;42.30;;;4.40;99.90;;;;;;5030243;28;20387;-69
2021/03/10 07:07:14;;;;;;;84.30;49.35;;;4.50;99.90;;;;;;5033531;28;20057;-69
2021/03/10 07:09:41;;;;;;;73.53;40.00;;;4.60;99.90;;;;;;5031865;28;20040;-69
2021/03/10 07:12:09;;;;;;;70.65;37.00;;;4.60;99.90;;;;;;5015319;28;20049;-69
2021/03/10 07:14:37;;;;;;;73.57;38.10;;;4.60;99.90;;;;;;5023281;28;20053;-70
2021/03/10 07:17:12;;;;;;;67.63;34.85;;;4.80;99.90;;;;;;5026991;28;20026;-71
2021/03/10 07:19:39;;;;;;;67.35;35.83;;;4.80;99.90;;;;;;5014370;28;20041;-73
2021/03/10 07:22:11;;;;;;;59.88;35.05;;;4.80;99.90;;;;;;5017615;28;20025;-73
2021/03/10 07:24:56;;;;;;;74.22;41.00;;;4.90;99.90;;;;;;5017330;28;20030;-74
2021/03/10 07:27:24;;;;;;;64.28;35.60;;;5.00;99.90;;;;;;5014558;28;20472;-73
2021/03/10 07:30:00;;;;;;;65.40;36.40;;;5.10;99.90;;;;;;5028927;28;20038;-74
2021/03/10 07:32:26;;;;;;;66.50;35.42;;;5.20;99.90;;;;;;5029511;28;20056;-74
2021/03/10 07:35:01;;;;;;;66.55;38.83;;;5.30;99.90;;;;;;5029552;28;20057;-72
2021/03/10 07:37:28;;;;;;;61.63;35.28;;;5.50;99.90;;;;;;5013896;28;20042;-73
2021/03/10 07:40:06;;;;;;;63.08;34.95;;;5.50;99.90;;;;;;5025899;28;20037;-73
2021/03/10 07:42:33;;;;;;;65.35;34.00;;;5.50;99.90;;;;;;5023322;28;20034;-74
2021/03/10 07:44:59;;;;;;;71.07;40.70;;;5.60;99.90;;;;;;5025382;28;20037;-74
2021/03/10 07:47:25;;;;;;;58.42;34.70;;;5.70;99.90;;;;;;5022103;28;20392;-74
2021/03/10 07:50:00;;;;;;;56.55;32.85;;;5.80;99.90;;;;;;5013661;28;20038;-73
2021/03/10 07:52:28;;;;;;;58.85;32.42;;;5.90;99.90;;;;;;5014127;28;20041;-73
2021/03/10 07:54:59;;;;;;;55.30;32.80;;;6.10;99.90;;;;;;5013793;28;20035;-73
2021/03/10 07:57:26;;;;;;;55.08;33.83;;;6.40;99.90;;;;;;5013803;28;20049;-73
2021/03/10 07:59:52;;;;;;;52.40;31.42;;;6.60;99.90;;;;;;5026308;28;20044;-73
2021/03/10 08:02:19;;;;;;;55.65;31.83;;;6.80;99.90;;;;;;5020000;28;20387;-73
2021/03/10 08:05:01;;;;;;;56.47;33.92;;;7.00;99.90;;;;;;5019391;28;20044;-73
2021/03/10 08:07:30;;;;;;;53.50;31.13;;;7.20;99.90;;;;;;5014716;28;20054;-73
2021/03/10 08:09:57;;;;;;;51.90;31.38;;;7.00;99.90;;;;;;5031782;28;20263;-73
2021/03/10 08:12:37;;;;;;;52.78;31.33;;;7.10;99.90;;;;;;5032298;28;20048;-73
2021/03/10 08:15:05;;;;;;;48.83;30.65;;;7.70;99.90;;;;;;5017728;28;20038;-73
2021/03/10 08:17:31;;;;;;;50.55;28.83;;;8.20;99.90;;;;;;5013091;28;20030;-72
2021/03/10 08:20:04;;;;;;;48.75;29.40;;;8.20;99.90;;;;;;5030327;28;20045;-73
2021/03/10 08:22:33;;;;;;;49.45;30.92;;;7.90;99.90;;;;;;5013100;28;20030;-72
2021/03/10 08:25:04;;;;;;;48.53;28.98;;;7.90;99.90;;;;;;5027547;28;20370;-73
2021/03/10 08:27:38;;;;;;;47.10;29.20;;;7.90;99.90;;;;;;5013651;28;20057;-72
2021/03/10 08:30:11;;;;;;;50.60;30.30;;;8.30;99.90;;;;;;5013372;28;20025;-73
2021/03/10 08:32:37;;;;;;;47.97;30.40;;;8.40;99.90;;;;;;5013074;28;20046;-72
2021/03/10 08:35:10;;;;;;;51.45;32.08;;;8.20;99.90;;;;;;5018665;28;20032;-74
2021/03/10 08:37:36;;;;;;;45.00;29.35;;;8.30;99.90;;;;;;5031667;28;20038;-73
2021/03/10 08:40:05;;;;;;;52.03;32.03;;;8.00;99.90;;;;;;5019517;28;20030;-73
2021/03/10 08:42:31;;;;;;;53.53;36.63;;;7.60;99.90;;;;;;5012861;28;20487;-73
2021/03/10 08:44:58;;;;;;;46.17;28.80;;;7.60;99.90;;;;;;5012687;28;20041;-73
2021/03/10 08:47:25;;;;;;;50.13;29.42;;;7.60;99.90;;;;;;5012916;28;20042;-73
2021/03/10 08:49:54;;;;;;;47.17;27.90;;;8.00;99.90;;;;;;5030022;28;20046;-73
2021/03/10 08:52:23;;;;;;;46.60;27.38;;;7.90;99.90;;;;;;5031087;28;20046;-73
2021/03/10 08:54:57;;;;;;;49.22;29.25;;;7.80;99.90;;;;;;5029968;28;20045;-73
2021/03/10 08:57:35;;;;;;;46.03;29.10;;;7.90;99.90;;;;;;5021664;28;20045;-73
2021/03/10 09:00:23;;;;;;;47.85;31.08;;;7.90;99.90;;;;;;5024895;28;20052;-73
2021/03/10 09:02:50;;;;;;;43.90;27.33;;;7.80;99.90;;;;;;5018048;28;20502;-73
2021/03/10 09:05:26;;;;;;;45.67;28.73;;;8.00;99.90;;;;;;5026765;28;20041;-73
2021/03/10 09:07:53;;;;;;;50.30;29.40;;;8.10;99.90;;;;;;5028015;28;20053;-73
2021/03/10 09:10:21;;;;;;;50.90;32.33;;;8.00;99.90;;;;;;5023291;28;20042;-73
2021/03/10 09:12:53;;;;;;;48.95;28.77;;;7.90;99.90;;;;;;5024685;28;20483;-73
2021/03/10 09:15:25;;;;;;;47.22;29.45;;;8.00;99.90;;;;;;5029435;28;20042;-73
2021/03/10 09:18:05;;;;;;;43.88;28.48;;;7.90;99.90;;;;;;5029917;28;20053;-73
2021/03/10 09:20:39;;;;;;;64.38;47.17;;;8.00;99.90;;;;;;5024712;28;20033;-74
2021/03/10 09:23:10;;;;;;;47.00;30.95;;;8.20;99.90;;;;;;5027607;28;20050;-73
2021/03/10 09:25:42;;;;;;;44.70;27.83;;;8.30;99.90;;;;;;5011059;28;20049;-73
2021/03/10 09:28:20;;;;;;;44.55;28.15;;;8.30;99.90;;;;;;5011535;28;20038;-73
2021/03/10 09:31:15;;;;;;;42.28;27.05;;;8.30;99.90;;;;;;5013662;28;20041;-73
2021/03/10 09:34:05;;;;;;;40.13;25.92;;;8.60;99.90;;;;;;5019314;28;20037;-73
2021/03/10 09:36:38;;;;;;;49.35;31.90;;;8.60;99.90;;;;;;5016952;28;20041;-73
2021/03/10 09:39:08;;;;;;;36.60;27.15;;;8.90;99.90;;;;;;5029525;28;20045;-73
2021/03/10 09:41:56;;;;;;;38.45;25.05;;;9.30;97.80;;;;;;5029459;28;20049;-74
2021/03/10 09:44:39;;;;;;;39.63;25.45;;;9.40;97.00;;;;;;5025773;28;20054;-73
2021/03/10 09:47:22;;;;;;;35.85;21.70;;;9.60;95.70;;;;;;5012482;28;20038;-73
2021/03/10 09:49:55;;;;;;;29.40;20.83;;;9.50;94.00;;;;;;5011835;28;20069;-73
2021/03/10 09:52:32;;;;;;;29.33;19.42;;;9.60;91.60;;;;;;5017943;28;20057;-73
2021/03/10 09:54:59;;;;;;;28.95;19.63;;;9.50;91.10;;;;;;5022265;28;20042;-73
2021/03/10 09:57:31;;;;;;;32.20;19.95;;;9.30;90.40;;;;;;5031467;28;20052;-73
2021/03/10 09:59:58;;;;;;;33.25;20.80;;;9.10;91.00;;;;;;5034059;28;20221;-73
2021/03/10 10:02:26;;;;;;;27.58;19.02;;;9.10;90.90;;;;;;5028365;28;20045;-73
2021/03/10 10:04:57;;;;;;;33.53;19.98;;;9.00;90.30;;;;;;5022667;28;20029;-73
2021/03/10 10:07:26;;;;;;;27.42;18.38;;;9.00;89.30;;;;;;5041160;28;20045;-73
2021/03/10 10:10:00;;;;;;;27.27;17.50;;;9.40;90.60;;;;;;5025296;28;20038;-74
2021/03/10 10:12:26;;;;;;;29.48;17.73;;;9.50;86.60;;;;;;5031237;28;20415;-74
2021/03/10 10:15:03;;;;;;;32.92;19.10;;;9.70;87.60;;;;;;5032992;28;20064;-74
2021/03/10 10:17:33;;;;;;;30.02;19.80;;;9.90;85.00;;;;;;5034056;28;20056;-74
2021/03/10 10:20:06;;;;;;;32.78;20.90;;;10.10;86.20;;;;;;5019525;28;20038;-74
2021/03/10 10:22:34;;;;;;;31.80;19.48;;;9.80;86.90;;;;;;5013913;28;20046;-74
2021/03/10 10:25:02;;;;;;;31.73;19.73;;;9.90;86.90;;;;;;5023199;28;20038;-74
2021/03/10 10:27:30;;;;;;;29.00;18.00;;;10.20;85.00;;;;;;5031762;28;20053;-74
2021/03/10 10:29:56;;;;;;;27.42;17.83;;;10.40;82.10;;;;;;5030122;28;20225;-73
2021/03/10 10:32:23;;;;;;;22.20;15.18;;;10.50;80.90;;;;;;5015855;28;20053;-74
2021/03/10 10:34:50;;;;;;;26.35;16.58;;;10.60;75.10;;;;;;5021581;28;20036;-74
2021/03/10 10:37:18;;;;;;;22.60;15.48;;;10.10;77.50;;;;;;5034794;28;20041;-74
2021/03/10 10:39:53;;;;;;;21.65;13.80;;;9.90;76.70;;;;;;5014014;28;20049;-73
2021/03/10 10:42:20;;;;;;;21.85;13.65;;;9.50;77.20;;;;;;5014058;28;20041;-73
2021/03/10 10:44:50;;;;;;;20.92;13.63;;;9.70;76.40;;;;;;5015091;28;20407;-74
2021/03/10 10:47:20;;;;;;;;;;;10.20;75.90;;;;;;5026097;28;20045;-74
2021/03/10 10:49:50;;;;;;;22.05;13.82;;;10.10;75.00;;;;;;5032483;28;19909;-74
2021/03/10 10:52:16;;;;;;;19.98;13.32;;;10.50;73.70;;;;;;5032525;28;20056;-74
2021/03/10 10:54:43;;;;;;;22.38;13.13;;;10.50;73.40;;;;;;5048126;28;20050;-74
2021/03/10 10:57:10;;;;;;;20.55;13.75;;;10.60;72.30;;;;;;5028823;28;20038;-74
2021/03/10 10:59:42;;;;;;;19.33;12.15;;;10.80;70.90;;;;;;5013747;28;20042;-73
2021/03/10 11:02:14;;;;;;;18.25;12.73;;;10.70;70.20;;;;;;5022450;28;20472;-73
2021/03/10 11:04:46;;;;;;;16.30;11.32;;;10.80;67.60;;;;;;5032371;28;20041;-73
2021/03/10 11:07:16;;;;;;;23.17;14.25;;;10.70;68.10;;;;;;5032783;28;20049;-74
2021/03/10 11:09:43;;;;;;;18.67;12.85;;;10.70;71.50;;;;;;5030565;28;20395;-73
2021/03/10 11:12:13;;;;;;;20.25;13.65;;;10.60;67.80;;;;;;5024017;28;20049;-74
2021/03/10 11:14:44;;;;;;;22.25;13.93;;;10.60;68.50;;;;;;5027975;28;20416;-73
2021/03/10 11:17:22;;;;;;;23.85;14.70;;;10.10;71.10;;;;;;5028703;28;20042;-74
2021/03/10 11:19:54;;;;;;;22.73;14.60;;;10.30;72.30;;;;;;5028635;28;20075;-74
2021/03/10 11:22:20;;;;;;;23.40;15.93;;;10.60;72.60;;;;;;5024484;28;20446;-75
2021/03/10 11:24:47;;;;;;;23.27;15.57;;;10.70;71.80;;;;;;5025083;28;20490;-74
2021/03/10 11:27:17;;;;;;;20.13;14.95;;;10.70;71.60;;;;;;5020485;28;20044;-75
2021/03/10 11:29:44;;;;;;;22.33;15.13;;;10.80;71.90;;;;;;5021719;28;20046;-74
2021/03/10 11:32:10;;;;;;;22.05;14.90;;;10.80;69.80;;;;;;5028191;28;20463;-75
2021/03/10 11:34:40;;;;;;;19.92;15.20;;;10.70;70.80;;;;;;5017703;28;20046;-73
2021/03/10 11:37:08;;;;;;;16.98;11.95;;;10.70;68.10;;;;;;5036801;28;20030;-74
2021/03/10 11:39:38;;;;;;;17.75;9.90;;;10.80;66.40;;;;;;5032384;28;20042;-75
2021/03/10 11:42:06;;;;;;;13.60;9.70;;;10.80;67.60;;;;;;5017179;28;20052;-75
2021/03/10 11:44:33;;;;;;;15.43;9.63;;;11.20;64.70;;;;;;5021581;28;20042;-75
2021/03/10 11:46:59;;;;;;;15.98;9.75;;;11.00;65.00;;;;;;5031624;28;20053;-75
2021/03/10 11:49:26;;;;;;;15.07;9.68;;;10.60;64.70;;;;;;5037089;28;20045;-74
2021/03/10 11:51:52;;;;;;;15.43;9.27;;;10.70;65.80;;;;;;5032360;28;20399;-76
2021/03/10 11:54:18;;;;;;;14.43;9.05;;;11.00;63.80;;;;;;5032621;28;20030;-76
2021/03/10 11:56:45;;;;;;;12.20;8.25;;;11.10;62.30;;;;;;5016707;28;20478;-75
2021/03/10 11:59:11;;;;;;;12.25;8.60;;;11.10;62.10;;;;;;5023153;28;20045;-75
2021/03/10 12:01:45;;;;;;;12.75;7.65;;;11.20;61.90;;;;;;5015772;28;20476;-75
2021/03/10 12:04:14;;;;;;;14.70;8.68;;;11.10;61.50;;;;;;5027218;28;20038;-75
2021/03/10 12:06:52;;;;;;;12.25;8.50;;;11.10;60.20;;;;;;5025977;28;20049;-75
2021/03/10 12:09:19;;;;;;;13.88;9.25;;;11.10;61.40;;;;;;5013591;28;20053;-75
2021/03/10 12:11:46;;;;;;;14.90;9.40;;;11.20;61.40;;;;;;5013218;28;20038;-75
2021/03/10 12:14:13;;;;;;;12.85;8.18;;;11.10;61.50;;;;;;5013797;28;20030;-75
2021/03/10 12:16:40;;;;;;;11.95;8.40;;;11.30;61.70;;;;;;5028432;28;20364;-75
2021/03/10 12:19:06;;;;;;;19.15;10.07;;;11.20;61.20;;;;;;5022047;28;20060;-73
2021/03/10 12:21:33;;;;;;;13.88;10.20;;;11.10;61.10;;;;;;5013187;28;20384;-73
2021/03/10 12:23:59;;;;;;;14.65;10.07;;;11.10;61.90;;;;;;5013068;28;20037;-74
2021/03/10 12:26:26;;;;;;;17.65;10.55;;;11.00;61.70;;;;;;5013320;28;20034;-74
2021/03/10 12:28:52;;;;;;;14.35;9.50;;;11.10;62.40;;;;;;5012440;28;20038;-74
2021/03/10 12:31:18;;;;;;;16.92;11.52;;;11.00;62.50;;;;;;5032091;28;20048;-74
2021/03/10 12:33:44;;;;;;;20.98;12.23;;;10.80;62.10;;;;;;5029798;28;20025;-73
2021/03/10 12:36:10;;;;;;;22.40;11.05;;;10.70;63.20;;;;;;5027510;28;20057;-75
2021/03/10 12:38:37;;;;;;;18.23;11.38;;;10.70;62.40;;;;;;5014725;28;20492;-74
2021/03/10 12:41:03;;;;;;;18.60;11.45;;;10.70;63.10;;;;;;5012951;28;20475;-74
2021/03/10 12:43:29;;;;;;;19.30;12.57;;;10.70;62.50;;;;;;5012391;28;20038;-76
2021/03/10 12:45:56;;;;;;;17.52;11.63;;;10.90;62.90;;;;;;5013489;28;20049;-74